createdAt,value
2022-12-22T00:02:36.113Z,13.51
2022-12-22T00:05:31.103Z,13.52
2022-12-22T00:08:16.381Z,13.51
2022-12-22T00:11:02.257Z,13.52
2022-12-22T00:13:49.315Z,13.53
2022-12-22T00:16:35.001Z,13.52
2022-12-22T00:19:20.851Z,13.56
2022-12-22T00:22:06.212Z,13.49
2022-12-22T00:24:51.572Z,13.47
2022-12-22T00:27:45.951Z,13.53
2022-12-22T00:30:34.723Z,13.53
2022-12-22T00:33:23.096Z,13.58
2022-12-22T00:36:09.118Z,13.62
2022-12-22T00:38:54.586Z,13.53
2022-12-22T00:41:39.928Z,13.61
2022-12-22T00:44:25.295Z,13.44
2022-12-22T00:47:12.259Z,13.56
2022-12-22T00:50:03.279Z,13.53
2022-12-22T00:52:49.048Z,13.52
2022-12-22T00:55:37.814Z,13.60
2022-12-22T00:58:31.556Z,13.45
2022-12-22T01:01:16.886Z,13.37
2022-12-22T01:04:04.222Z,13.38
2022-12-22T01:06:50.915Z,13.58
2022-12-22T01:09:36.699Z,13.62
2022-12-22T01:12:22.935Z,13.50
2022-12-22T01:15:08.350Z,13.60
2022-12-22T01:17:54.098Z,13.48
2022-12-22T01:20:41.099Z,13.44
2022-12-22T01:23:29.552Z,13.51
2022-12-22T01:26:15.475Z,13.34
2022-12-22T01:29:00.869Z,13.43
2022-12-22T01:31:48.617Z,13.45
2022-12-22T01:34:34.429Z,13.41
2022-12-22T01:37:21.442Z,13.44
2022-12-22T01:40:06.824Z,13.43
2022-12-22T01:42:54.120Z,13.46
2022-12-22T01:45:42.311Z,13.55
2022-12-22T01:48:30.586Z,13.46
2022-12-22T01:51:19.121Z,13.59
2022-12-22T01:54:07.015Z,13.68
2022-12-22T01:56:52.654Z,13.76
2022-12-22T01:59:38.592Z,13.70
2022-12-22T02:02:24.927Z,13.75
2022-12-22T02:05:11.173Z,13.86
2022-12-22T02:08:12.594Z,13.79
2022-12-22T02:11:29.363Z,13.80
2022-12-22T02:14:30.546Z,13.63
2022-12-22T02:17:27.425Z,13.47
2022-12-22T02:20:44.268Z,13.76
2022-12-22T02:23:39.547Z,13.82
2022-12-22T02:26:42.208Z,13.94
2022-12-22T02:29:29.208Z,13.95
2022-12-22T02:32:15.287Z,13.83
2022-12-22T02:35:00.575Z,13.85
2022-12-22T02:37:54.015Z,13.91
2022-12-22T02:40:48.189Z,13.93
2022-12-22T02:43:48.285Z,13.92
2022-12-22T02:46:42.076Z,13.77
2022-12-22T02:49:34.916Z,13.79
2022-12-22T02:52:27.769Z,13.90
2022-12-22T02:55:13.471Z,13.80
2022-12-22T02:57:58.885Z,13.82
2022-12-22T03:00:46.029Z,13.76
2022-12-22T03:03:31.402Z,13.93
2022-12-22T03:06:16.817Z,14.05
2022-12-22T03:09:02.286Z,14.01
2022-12-22T03:11:47.527Z,13.93
2022-12-22T03:14:32.932Z,14.01
2022-12-22T03:17:19.678Z,14.10
2022-12-22T03:20:05.054Z,14.18
2022-12-22T03:22:50.278Z,14.01
2022-12-22T03:25:35.558Z,14.13
2022-12-22T03:28:04.315Z,14.15
2022-12-22T03:30:32.695Z,14.19
2022-12-22T03:33:02.280Z,14.14
2022-12-22T03:35:30.297Z,14.21
2022-12-22T03:38:03.378Z,14.29
2022-12-22T03:40:32.067Z,14.23
2022-12-22T03:43:17.396Z,14.17
2022-12-22T03:46:03.224Z,14.00
2022-12-22T03:48:32.716Z,14.09
2022-12-22T03:51:00.729Z,14.05
2022-12-22T03:53:28.758Z,14.07
2022-12-22T03:55:56.745Z,14.08
2022-12-22T03:58:24.790Z,13.90
2022-12-22T04:00:52.991Z,13.99
2022-12-22T04:03:21.082Z,14.10
2022-12-22T04:05:50.502Z,14.09
2022-12-22T04:08:18.539Z,14.06
2022-12-22T04:11:04.338Z,14.15
2022-12-22T04:13:32.379Z,14.11
2022-12-22T04:16:00.454Z,14.15
2022-12-22T04:18:28.551Z,14.17
2022-12-22T04:20:57.968Z,14.14
2022-12-22T04:23:26.033Z,14.06
2022-12-22T04:25:54.035Z,14.12
2022-12-22T04:28:22.119Z,14.03
2022-12-22T04:30:51.143Z,13.95
2022-12-22T04:33:19.292Z,13.99
2022-12-22T04:35:47.334Z,14.11
2022-12-22T04:38:16.754Z,14.19
2022-12-22T04:40:44.794Z,14.17
2022-12-22T04:43:12.840Z,14.11
2022-12-22T04:45:40.888Z,14.10
2022-12-22T04:48:08.962Z,14.09
2022-12-22T04:50:37.055Z,14.03
2022-12-22T04:53:05.103Z,14.10
2022-12-22T04:55:34.539Z,14.13
2022-12-22T04:58:02.633Z,14.11
2022-12-22T05:00:30.768Z,14.17
2022-12-22T05:02:58.936Z,14.24
2022-12-22T05:05:27.026Z,14.27
2022-12-22T05:07:55.075Z,14.25
2022-12-22T05:10:23.116Z,14.26
2022-12-22T05:12:55.519Z,14.29
2022-12-22T05:15:23.916Z,14.21
2022-12-22T05:17:52.095Z,14.19
2022-12-22T05:20:20.632Z,14.20
2022-12-22T05:22:48.943Z,14.19
2022-12-22T05:25:18.053Z,14.25
2022-12-22T05:27:46.440Z,14.28
2022-12-22T05:30:17.859Z,14.28
2022-12-22T05:32:46.223Z,14.30
2022-12-22T05:35:14.564Z,14.34
2022-12-22T05:37:42.934Z,14.36
2022-12-22T05:40:12.752Z,14.36
2022-12-22T05:42:40.869Z,14.40
2022-12-22T05:45:15.049Z,14.37
2022-12-22T05:47:45.550Z,14.37
2022-12-22T05:50:14.962Z,14.39
2022-12-22T05:52:44.867Z,14.37
2022-12-22T05:55:13.801Z,14.36
2022-12-22T05:57:42.445Z,14.28
2022-12-22T06:00:12.778Z,14.33
2022-12-22T06:02:40.931Z,14.34
2022-12-22T06:05:12.039Z,14.32
2022-12-22T06:07:40.724Z,14.30
2022-12-22T06:10:12.705Z,14.27
2022-12-22T06:12:41.633Z,14.26
2022-12-22T06:15:12.412Z,14.25
2022-12-22T06:17:44.792Z,14.24
2022-12-22T06:20:15.646Z,14.29
2022-12-22T06:22:43.740Z,14.30
2022-12-22T06:25:17.815Z,14.30
2022-12-22T06:27:47.185Z,14.25
2022-12-22T06:30:15.784Z,14.22
2022-12-22T06:32:43.986Z,14.22
2022-12-22T06:35:14.411Z,14.22
2022-12-22T06:37:42.493Z,14.18
2022-12-22T06:40:11.397Z,14.18
2022-12-22T06:43:00.782Z,14.09
2022-12-22T06:45:34.004Z,14.11
2022-12-22T06:48:02.157Z,14.04
2022-12-22T06:50:31.580Z,13.94
2022-12-22T06:52:59.664Z,14.05
2022-12-22T06:55:27.891Z,14.06
2022-12-22T06:57:55.993Z,14.05
2022-12-22T07:00:24.999Z,13.96
2022-12-22T07:02:53.312Z,13.97
2022-12-22T07:05:21.563Z,14.00
2022-12-22T07:07:51.143Z,13.97
2022-12-22T07:10:39.712Z,13.93
2022-12-22T07:13:19.469Z,13.92
2022-12-22T07:15:52.079Z,13.96
2022-12-22T07:18:26.136Z,13.91
2022-12-22T07:20:54.151Z,13.86
2022-12-22T07:23:23.606Z,13.80
2022-12-22T07:25:51.604Z,13.66
2022-12-22T07:28:21.318Z,13.58
2022-12-22T07:30:50.588Z,13.48
2022-12-22T07:33:18.932Z,13.43
2022-12-22T07:35:47.369Z,13.34
2022-12-22T07:38:15.461Z,13.23
2022-12-22T07:40:48.051Z,13.18
2022-12-22T07:43:18.858Z,13.03
2022-12-22T07:45:46.904Z,13.03
2022-12-22T07:48:28.828Z,13.00
2022-12-22T07:51:03.057Z,12.97
2022-12-22T07:53:31.075Z,12.95
2022-12-22T07:56:03.298Z,13.01
2022-12-22T07:58:31.489Z,13.04
2022-12-22T08:01:00.764Z,13.06
2022-12-22T08:03:29.257Z,13.00
2022-12-22T08:05:57.325Z,13.01
2022-12-22T08:08:25.382Z,12.99
2022-12-22T08:10:53.461Z,13.01
2022-12-22T08:13:22.941Z,13.01
2022-12-22T08:15:51.037Z,12.96
2022-12-22T08:18:19.143Z,12.88
2022-12-22T08:20:50.779Z,12.75
2022-12-22T08:23:18.994Z,12.63
2022-12-22T08:25:49.487Z,12.63
2022-12-22T08:28:18.391Z,12.59
2022-12-22T08:30:48.334Z,12.60
2022-12-22T08:33:16.643Z,12.57
2022-12-22T08:35:45.061Z,12.51
2022-12-22T08:38:14.756Z,12.48
2022-12-22T08:40:44.526Z,12.47
2022-12-22T08:43:13.312Z,12.40
2022-12-22T08:45:42.652Z,12.43
2022-12-22T08:48:12.160Z,12.42
2022-12-22T08:50:40.513Z,12.42
2022-12-22T08:53:23.703Z,12.35
2022-12-22T08:55:57.977Z,12.33
2022-12-22T08:58:26.037Z,12.42
2022-12-22T09:00:54.141Z,12.48
2022-12-22T09:03:23.639Z,12.52
2022-12-22T09:05:51.741Z,12.59
2022-12-22T09:08:19.782Z,12.56
2022-12-22T09:10:47.815Z,12.57
2022-12-22T09:13:15.891Z,12.70
2022-12-22T09:15:43.933Z,12.74
2022-12-22T09:18:12.023Z,12.72
2022-12-22T09:20:41.459Z,12.75
2022-12-22T09:23:09.474Z,12.67
2022-12-22T09:25:37.562Z,12.63
2022-12-22T09:28:08.471Z,12.56
2022-12-22T09:30:36.547Z,12.55
2022-12-22T09:33:04.589Z,12.60
2022-12-22T09:35:32.615Z,12.61
2022-12-22T09:38:02.021Z,12.49
2022-12-22T09:40:30.076Z,12.47
2022-12-22T09:42:59.410Z,12.44
2022-12-22T09:45:27.525Z,12.52
2022-12-22T09:47:56.685Z,12.63
2022-12-22T09:50:26.466Z,12.70
2022-12-22T09:52:58.647Z,12.69
2022-12-22T09:55:41.037Z,12.57
2022-12-22T09:58:24.013Z,12.61
2022-12-22T10:01:01.814Z,12.58
2022-12-22T10:03:35.879Z,12.61
2022-12-22T10:06:12.223Z,12.55
2022-12-22T10:08:41.862Z,12.58
2022-12-22T10:11:16.504Z,12.66
2022-12-22T10:13:46.155Z,12.80
2022-12-22T10:16:19.838Z,12.86
2022-12-22T10:18:58.452Z,13.02
2022-12-22T10:21:26.531Z,13.54
2022-12-22T10:23:55.238Z,14.15
2022-12-22T10:26:29.157Z,14.73
2022-12-22T10:29:02.363Z,15.11
2022-12-22T10:31:32.416Z,15.02
2022-12-22T10:34:12.717Z,14.74
2022-12-22T10:36:41.719Z,14.39
2022-12-22T10:39:11.960Z,14.42
2022-12-22T10:41:45.825Z,14.26
2022-12-22T10:44:21.232Z,14.51
2022-12-22T10:46:51.629Z,14.52
2022-12-22T10:49:22.844Z,14.60
2022-12-22T10:51:53.871Z,14.63
2022-12-22T10:54:30.841Z,14.70
2022-12-22T10:57:19.326Z,14.57
2022-12-22T10:59:50.582Z,14.34
2022-12-22T11:02:30.508Z,14.00
2022-12-22T11:05:04.765Z,13.83
2022-12-22T11:07:35.464Z,13.71
2022-12-22T11:10:04.008Z,13.64
2022-12-22T11:12:44.723Z,13.53
2022-12-22T11:15:24.965Z,13.09
2022-12-22T11:18:02.834Z,13.15
2022-12-22T11:20:48.246Z,13.21
2022-12-22T11:23:21.252Z,13.39
2022-12-22T11:26:07.506Z,13.41
2022-12-22T11:28:55.801Z,13.40
2022-12-22T11:31:40.991Z,13.62
2022-12-22T11:34:21.904Z,13.60
2022-12-22T11:37:08.703Z,14.04
2022-12-22T11:39:43.526Z,14.28
2022-12-22T11:42:36.439Z,14.60
2022-12-22T11:45:30.373Z,14.63
2022-12-22T11:48:08.938Z,14.77
2022-12-22T11:50:59.671Z,15.01
2022-12-22T11:53:51.342Z,14.52
2022-12-22T11:56:23.913Z,14.28
2022-12-22T11:59:11.764Z,14.09
2022-12-22T12:02:01.226Z,13.99
2022-12-22T12:05:00.857Z,13.88
2022-12-22T12:07:32.937Z,13.73
2022-12-22T12:10:14.707Z,14.17
2022-12-22T12:12:52.746Z,14.75
2022-12-22T12:15:30.118Z,15.31
2022-12-22T12:18:27.858Z,15.48
2022-12-22T12:21:08.780Z,15.25
2022-12-22T12:23:53.739Z,14.93
2022-12-22T12:26:26.526Z,14.78
2022-12-22T12:29:05.461Z,14.83
2022-12-22T12:31:39.214Z,15.33
2022-12-22T12:34:13.427Z,15.88
2022-12-22T12:36:46.459Z,16.16
2022-12-22T12:39:19.335Z,16.08
2022-12-22T12:41:55.027Z,15.92
2022-12-22T12:44:27.088Z,15.81
2022-12-22T12:47:23.297Z,15.81
2022-12-22T12:50:02.962Z,16.29
2022-12-22T12:53:13.967Z,17.00
2022-12-22T12:56:04.652Z,17.32
2022-12-22T12:58:54.855Z,16.98
2022-12-22T13:01:57.760Z,17.05
2022-12-22T13:05:14.477Z,17.23
2022-12-22T13:08:12.464Z,16.81
2022-12-22T13:10:43.195Z,16.74
2022-12-22T13:13:34.821Z,16.57
2022-12-22T13:16:32.290Z,16.58
2022-12-22T13:19:03.539Z,16.11
2022-12-22T13:21:53.063Z,15.71
2022-12-22T13:24:27.527Z,15.34
2022-12-22T13:27:01.695Z,14.92
2022-12-22T13:29:41.674Z,14.49
2022-12-22T13:32:23.391Z,14.33
2022-12-22T13:35:30.321Z,14.13
2022-12-22T13:37:54.673Z,13.88
2022-12-22T13:40:26.526Z,13.85
2022-12-22T13:42:57.261Z,13.81
2022-12-22T13:45:35.630Z,13.80
2022-12-22T13:48:10.449Z,13.89
2022-12-22T13:50:42.775Z,13.77
2022-12-22T13:53:22.910Z,13.79
2022-12-22T13:56:01.392Z,13.71
2022-12-22T13:58:33.857Z,13.68
2022-12-22T14:01:05.582Z,13.49
2022-12-22T14:03:58.644Z,13.58
2022-12-22T14:06:28.090Z,13.50
2022-12-22T14:09:10.620Z,13.44
2022-12-22T14:11:38.709Z,13.37
2022-12-22T14:14:08.940Z,13.25
2022-12-22T14:16:44.362Z,13.12
2022-12-22T14:19:14.547Z,13.25
2022-12-22T14:21:43.248Z,13.17
2022-12-22T14:24:15.511Z,13.16
2022-12-22T14:26:43.944Z,13.25
2022-12-22T14:29:18.398Z,13.31
2022-12-22T14:31:55.600Z,13.21
2022-12-22T14:34:29.016Z,13.29
2022-12-22T14:36:58.476Z,13.34
2022-12-22T14:39:30.844Z,13.45
2022-12-22T14:42:01.429Z,13.39
2022-12-22T14:44:31.041Z,13.33
2022-12-22T14:47:16.154Z,13.23
2022-12-22T14:49:51.826Z,13.39
2022-12-22T14:52:26.223Z,13.31
2022-12-22T14:54:56.029Z,13.18
2022-12-22T14:57:32.436Z,13.24
2022-12-22T15:00:07.396Z,13.20
2022-12-22T15:02:39.967Z,13.22
2022-12-22T15:05:16.215Z,13.24
2022-12-22T15:08:05.232Z,13.38
2022-12-22T15:10:40.987Z,13.38
2022-12-22T15:13:18.334Z,13.37
2022-12-22T15:15:46.478Z,13.47
2022-12-22T15:18:16.809Z,13.27
2022-12-22T15:20:44.937Z,13.36
2022-12-22T15:23:16.762Z,13.36
2022-12-22T15:25:45.023Z,13.33
2022-12-22T15:28:13.077Z,13.25
2022-12-22T15:30:42.061Z,13.22
2022-12-22T15:33:14.326Z,13.23
2022-12-22T15:35:44.187Z,13.19
2022-12-22T15:38:15.418Z,13.17
2022-12-22T15:40:43.986Z,13.16
2022-12-22T15:43:36.818Z,13.22
2022-12-22T15:46:00.837Z,13.17
2022-12-22T15:48:33.041Z,13.20
2022-12-22T15:51:05.240Z,13.18
2022-12-22T15:53:34.643Z,13.15
2022-12-22T15:56:02.831Z,13.14
2022-12-22T15:58:35.977Z,13.10
2022-12-22T16:01:04.086Z,13.26
2022-12-22T16:03:32.226Z,13.23
2022-12-22T16:06:00.741Z,13.24
2022-12-22T16:08:32.367Z,13.17
2022-12-22T16:11:00.878Z,13.22
2022-12-22T16:13:29.541Z,13.31
2022-12-22T16:15:58.267Z,13.34
2022-12-22T16:18:26.937Z,13.26
2022-12-22T16:20:55.749Z,13.31
2022-12-22T16:23:27.055Z,13.22
2022-12-22T16:26:02.139Z,13.35
2022-12-22T16:28:30.717Z,13.39
2022-12-22T16:30:58.961Z,13.33
2022-12-22T16:33:27.053Z,13.35
2022-12-22T16:35:55.171Z,13.33
2022-12-22T16:38:23.330Z,13.34
2022-12-22T16:40:53.880Z,13.30
2022-12-22T16:46:17.018Z,13.26
2022-12-22T16:48:47.863Z,13.31
2022-12-22T16:51:19.726Z,13.14
2022-12-22T16:53:47.884Z,13.27
2022-12-22T16:56:19.375Z,13.35
2022-12-22T16:58:49.329Z,13.21
2022-12-22T17:01:26.711Z,13.29
2022-12-22T17:03:55.280Z,13.18
2022-12-22T17:06:23.368Z,13.23
2022-12-22T17:08:51.484Z,13.31
2022-12-22T17:11:23.108Z,13.32
2022-12-22T17:13:55.076Z,13.36
2022-12-22T17:16:24.274Z,13.23
2022-12-22T17:18:52.366Z,13.27
2022-12-22T17:21:21.823Z,13.26
2022-12-22T17:23:52.341Z,13.05
2022-12-22T17:26:23.879Z,13.03
2022-12-22T17:28:53.757Z,13.09
2022-12-22T17:31:23.681Z,13.02
2022-12-22T17:33:52.083Z,13.11
2022-12-22T17:36:33.065Z,13.03
2022-12-22T17:39:02.246Z,13.02
2022-12-22T17:41:30.712Z,13.02
2022-12-22T17:44:00.158Z,12.96
2022-12-22T17:46:29.015Z,12.91
2022-12-22T17:48:57.115Z,12.88
2022-12-22T17:51:28.261Z,12.92
2022-12-22T17:53:58.748Z,12.91
2022-12-22T17:56:28.216Z,12.78
2022-12-22T17:58:56.363Z,12.70
2022-12-22T18:01:28.706Z,12.64
2022-12-22T18:03:57.761Z,12.71
2022-12-22T18:06:29.299Z,12.70
2022-12-22T18:08:58.111Z,12.71
2022-12-22T18:11:26.604Z,12.72
2022-12-22T18:13:57.348Z,12.71
2022-12-22T18:16:27.459Z,12.64
2022-12-22T18:18:55.574Z,12.64
2022-12-22T18:21:25.653Z,12.73
2022-12-22T18:23:54.014Z,12.80
2022-12-22T18:26:24.195Z,12.77
2022-12-22T18:28:52.835Z,12.79
2022-12-22T18:31:21.630Z,12.78
2022-12-22T18:33:51.795Z,12.67
2022-12-22T18:36:21.353Z,12.71
2022-12-22T18:38:50.038Z,12.45
2022-12-22T18:41:22.970Z,12.66
2022-12-22T18:43:51.495Z,12.64
2022-12-22T18:46:20.400Z,12.58
2022-12-22T18:48:50.237Z,12.53
2022-12-22T18:51:21.568Z,12.50
2022-12-22T18:53:50.422Z,12.50
2022-12-22T18:56:18.878Z,12.57
2022-12-22T18:58:47.111Z,12.61
2022-12-22T19:01:19.856Z,12.51
2022-12-22T19:03:50.349Z,12.70
2022-12-22T19:06:21.059Z,12.80
2022-12-22T19:08:49.593Z,12.76
2022-12-22T19:11:19.205Z,12.67
2022-12-22T19:13:48.946Z,12.66
2022-12-22T19:16:19.784Z,12.82
2022-12-22T19:18:47.979Z,12.87
2022-12-22T19:21:19.054Z,12.76
2022-12-22T19:23:47.531Z,12.80
2022-12-22T19:26:22.698Z,12.81
2022-12-22T19:28:53.389Z,12.82
2022-12-22T19:31:24.132Z,12.85
2022-12-22T19:33:53.458Z,12.93
2022-12-22T19:36:26.381Z,12.80
2022-12-22T19:39:02.621Z,12.81
2022-12-22T19:41:41.290Z,12.78
2022-12-22T19:44:18.847Z,12.74
2022-12-22T19:46:47.702Z,12.79
2022-12-22T19:49:17.949Z,12.84
2022-12-22T19:51:47.939Z,12.81
2022-12-22T19:54:16.277Z,12.82
2022-12-22T19:56:47.348Z,12.75
2022-12-22T19:59:26.984Z,12.86
2022-12-22T20:01:58.592Z,12.74
2022-12-22T20:04:26.922Z,12.77
2022-12-22T20:06:56.375Z,12.75
2022-12-22T20:09:24.447Z,12.71
2022-12-22T20:11:52.477Z,12.69
2022-12-22T20:14:20.819Z,12.70
2022-12-22T20:16:48.915Z,12.73
2022-12-22T20:19:17.573Z,12.71
2022-12-22T20:21:45.738Z,12.79
2022-12-22T20:24:21.943Z,12.73
2022-12-22T20:26:54.041Z,12.77
2022-12-22T20:29:23.805Z,12.80
2022-12-22T20:31:52.049Z,12.78
2022-12-22T20:34:20.139Z,12.85
2022-12-22T20:36:48.193Z,12.88
2022-12-22T20:39:20.522Z,12.89
2022-12-22T20:41:53.494Z,12.88
2022-12-22T20:44:23.004Z,12.84
2022-12-22T20:46:51.323Z,12.86
2022-12-22T20:49:19.390Z,12.86
2022-12-22T20:51:47.583Z,12.88
2022-12-22T20:54:17.744Z,12.85
2022-12-22T20:56:46.296Z,12.91
2022-12-22T20:59:16.621Z,12.86
2022-12-22T21:01:44.871Z,12.87
2022-12-22T21:04:14.220Z,12.90
2022-12-22T21:06:46.269Z,12.92
2022-12-22T21:09:16.095Z,12.93
2022-12-22T21:11:45.829Z,12.91
2022-12-22T21:14:14.270Z,12.89
2022-12-22T21:16:43.564Z,12.90
2022-12-22T21:19:17.994Z,12.87
2022-12-22T21:21:46.265Z,12.94
2022-12-22T21:24:14.644Z,12.97
2022-12-22T21:26:47.342Z,12.97
2022-12-22T21:29:19.537Z,12.97
2022-12-22T21:31:47.636Z,12.93
2022-12-22T21:34:15.655Z,12.97
2022-12-22T21:36:45.114Z,13.04
2022-12-22T21:39:22.712Z,13.03
2022-12-22T21:42:01.280Z,13.04
2022-12-22T21:44:30.050Z,13.04
2022-12-22T21:46:58.436Z,13.03
2022-12-22T21:49:29.560Z,13.03
2022-12-22T21:51:57.760Z,13.06
2022-12-22T21:54:27.098Z,13.07
2022-12-22T21:56:56.579Z,13.07
2022-12-22T21:59:24.829Z,13.10
2022-12-22T22:01:53.499Z,13.14
2022-12-22T22:04:22.247Z,13.12
2022-12-22T22:06:50.352Z,13.16
2022-12-22T22:09:18.366Z,13.20
2022-12-22T22:12:03.601Z,13.23
2022-12-22T22:14:33.128Z,13.25
2022-12-22T22:17:01.188Z,13.27
2022-12-22T22:19:29.241Z,13.29
2022-12-22T22:21:57.283Z,13.26
2022-12-22T22:24:25.780Z,13.26
2022-12-22T22:26:55.958Z,13.27
2022-12-22T22:29:24.132Z,13.30
2022-12-22T22:31:53.580Z,13.31
2022-12-22T22:34:21.595Z,13.30
2022-12-22T22:36:49.669Z,13.27
2022-12-22T22:39:17.821Z,13.29
2022-12-22T22:41:45.872Z,13.29
2022-12-22T22:44:14.419Z,13.31
2022-12-22T22:46:42.507Z,13.30
2022-12-22T22:49:11.965Z,13.30
2022-12-22T22:51:40.026Z,13.27
2022-12-22T22:54:08.070Z,13.26
2022-12-22T22:56:38.742Z,13.29
2022-12-22T22:59:07.043Z,13.26
2022-12-22T23:01:35.221Z,13.29
2022-12-22T23:04:03.378Z,13.27
2022-12-22T23:06:32.898Z,13.29
2022-12-22T23:09:01.610Z,13.29
2022-12-22T23:11:29.685Z,13.29
2022-12-22T23:13:57.778Z,13.27
2022-12-22T23:16:25.934Z,13.31
2022-12-22T23:18:54.772Z,13.33
2022-12-22T23:21:24.625Z,13.35
2022-12-22T23:23:57.543Z,13.36
2022-12-22T23:26:26.359Z,13.35
2022-12-22T23:28:59.124Z,13.36
2022-12-22T23:31:31.294Z,13.34
2022-12-22T23:33:59.426Z,13.35
2022-12-22T23:36:27.568Z,13.35
2022-12-22T23:38:57.220Z,13.36
2022-12-22T23:41:25.494Z,13.36
2022-12-22T23:43:54.617Z,13.37
2022-12-22T23:46:23.297Z,13.35
2022-12-22T23:48:53.077Z,13.35
2022-12-22T23:51:22.749Z,13.35
2022-12-22T23:53:50.761Z,13.37
2022-12-22T23:56:20.499Z,13.35
2022-12-22T23:58:54.481Z,13.32
